createdAt,value
2023-03-17T10:33:21.832Z,1719.6428
2023-03-17T10:34:23.232Z,1645.0000
2023-03-17T10:35:25.830Z,1546.9231
2023-03-17T10:36:28.517Z,1430.2307
2023-03-17T10:37:31.019Z,1347.3846
2023-03-17T10:38:33.576Z,1326.6154
2023-03-17T11:28:11.696Z,840.4667
2023-03-17T11:29:14.262Z,588.3077
2023-03-17T11:30:16.844Z,445.9231
2023-03-17T11:31:19.585Z,381.6923
2023-03-17T11:32:22.114Z,353.6154
2023-03-17T11:33:24.706Z,415.4615
2023-03-17T11:34:27.237Z,447.1538
2023-03-17T11:35:29.834Z,636.3846
2023-03-17T11:36:32.383Z,651.5385
2023-03-17T11:37:35.003Z,523.9231
2023-03-17T11:38:37.530Z,484.7692
2023-03-17T11:39:40.107Z,503.5385
2023-03-17T11:40:42.674Z,439.1538
2023-03-17T11:41:45.334Z,387.6154
2023-03-17T11:44:07.882Z,547.2857
2023-03-17T11:45:53.098Z,746.8571
2023-03-17T11:46:55.594Z,670.9231
2023-03-17T11:47:59.894Z,805.6154
2023-03-17T11:49:01.101Z,750.0000
2023-03-17T11:50:03.382Z,749.3077
2023-03-17T11:51:05.945Z,802.4615
2023-03-17T11:52:08.495Z,797.2308
2023-03-17T11:53:11.078Z,644.0000
2023-03-17T11:54:13.674Z,569.6923
2023-03-17T11:55:16.243Z,506.3077
2023-03-17T11:56:18.851Z,471.7692
2023-03-17T11:59:17.969Z,535.4286
2023-03-17T12:00:20.537Z,573.4615
2023-03-17T17:59:32.387Z,812.3333
2023-03-17T18:02:42.577Z,797.4286
2023-03-17T18:03:45.125Z,806.6923
2023-03-17T18:04:47.729Z,806.4615
2023-03-17T18:05:50.288Z,800.3077
2023-03-17T18:07:39.142Z,851.5000
2023-03-17T18:08:41.807Z,848.6923
2023-03-17T18:09:44.308Z,842.0769
2023-03-17T18:10:46.902Z,835.6923
2023-03-17T18:11:49.492Z,825.5385
2023-03-17T18:12:52.112Z,816.3846
2023-03-17T18:13:54.646Z,812.5385
2023-03-17T18:14:57.234Z,810.2308
2023-03-17T18:15:59.804Z,810.6154
2023-03-17T18:17:02.448Z,811.9231
2023-03-17T18:18:05.003Z,815.9231
2023-03-17T18:19:07.561Z,829.5385
2023-03-17T18:20:10.223Z,844.9231
2023-03-17T18:21:12.726Z,847.6154
2023-03-17T18:22:15.324Z,854.2308
2023-03-17T18:23:17.914Z,859.7692
2023-03-17T18:24:20.482Z,852.3077
2023-03-17T18:25:23.148Z,842.2308
2023-03-17T18:26:25.807Z,835.0769
2023-03-17T18:28:59.429Z,830.4286
2023-03-17T18:30:02.015Z,851.3846
2023-03-17T18:31:04.643Z,861.8461
2023-03-17T18:32:07.459Z,888.6923
2023-03-17T18:33:09.864Z,910.9231
2023-03-17T18:34:12.344Z,978.9231
2023-03-17T18:35:14.921Z,1012.9231
2023-03-17T18:41:26.656Z,1001.0714
2023-03-17T18:42:29.231Z,1030.4615
2023-03-17T18:43:31.807Z,1029.1538
